sensor_id;sensor_type;location;lat;lon;timestamp;temperature;humidity
31379;DHT22;61664;48.112;11.662;2023-05-28T00:00:46;16.90;43.20
31379;DHT22;61664;48.112;11.662;2023-05-28T00:03:13;16.80;43.20
31379;DHT22;61664;48.112;11.662;2023-05-28T00:05:44;16.80;43.40
31379;DHT22;61664;48.112;11.662;2023-05-28T00:08:11;16.70;43.40
31379;DHT22;61664;48.112;11.662;2023-05-28T00:10:41;16.70;43.50
31379;DHT22;61664;48.112;11.662;2023-05-28T00:13:09;16.60;43.60
31379;DHT22;61664;48.112;11.662;2023-05-28T00:15:36;16.60;43.60
31379;DHT22;61664;48.112;11.662;2023-05-28T00:18:06;16.60;43.80
31379;DHT22;61664;48.112;11.662;2023-05-28T00:20:35;16.50;43.80
31379;DHT22;61664;48.112;11.662;2023-05-28T00:23:02;16.50;43.80
31379;DHT22;61664;48.112;11.662;2023-05-28T00:25:29;16.40;43.90
31379;DHT22;61664;48.112;11.662;2023-05-28T00:27:56;16.40;44.00
31379;DHT22;61664;48.112;11.662;2023-05-28T00:30:23;16.30;44.50
31379;DHT22;61664;48.112;11.662;2023-05-28T00:32:51;16.30;44.20
31379;DHT22;61664;48.112;11.662;2023-05-28T00:35:18;16.30;44.20
31379;DHT22;61664;48.112;11.662;2023-05-28T00:37:45;16.20;44.30
31379;DHT22;61664;48.112;11.662;2023-05-28T00:40:12;16.20;44.30
31379;DHT22;61664;48.112;11.662;2023-05-28T00:42:42;16.10;44.50
31379;DHT22;61664;48.112;11.662;2023-05-28T00:45:09;16.10;44.40
31379;DHT22;61664;48.112;11.662;2023-05-28T00:47:41;16.00;44.70
31379;DHT22;61664;48.112;11.662;2023-05-28T00:50:09;16.00;45.60
31379;DHT22;61664;48.112;11.662;2023-05-28T00:52:36;15.90;44.80
31379;DHT22;61664;48.112;11.662;2023-05-28T00:55:12;15.90;45.00
31379;DHT22;61664;48.112;11.662;2023-05-28T00:57:41;15.90;45.60
31379;DHT22;61664;48.112;11.662;2023-05-28T01:00:10;15.80;45.10
31379;DHT22;61664;48.112;11.662;2023-05-28T01:02:38;15.80;45.30
31379;DHT22;61664;48.112;11.662;2023-05-28T01:05:05;15.70;45.30
31379;DHT22;61664;48.112;11.662;2023-05-28T01:07:33;15.70;45.40
31379;DHT22;61664;48.112;11.662;2023-05-28T01:10:00;15.70;45.50
31379;DHT22;61664;48.112;11.662;2023-05-28T01:12:28;15.60;45.50
31379;DHT22;61664;48.112;11.662;2023-05-28T01:14:56;15.60;45.60
31379;DHT22;61664;48.112;11.662;2023-05-28T01:17:24;15.60;45.70
31379;DHT22;61664;48.112;11.662;2023-05-28T01:19:51;15.60;45.90
31379;DHT22;61664;48.112;11.662;2023-05-28T01:22:24;15.50;45.90
31379;DHT22;61664;48.112;11.662;2023-05-28T01:24:56;15.50;46.30
31379;DHT22;61664;48.112;11.662;2023-05-28T01:27:24;15.50;46.00
31379;DHT22;61664;48.112;11.662;2023-05-28T01:29:51;15.50;46.20
31379;DHT22;61664;48.112;11.662;2023-05-28T01:32:18;15.40;46.20
31379;DHT22;61664;48.112;11.662;2023-05-28T01:34:45;15.40;46.20
31379;DHT22;61664;48.112;11.662;2023-05-28T01:37:13;15.40;46.20
31379;DHT22;61664;48.112;11.662;2023-05-28T01:39:44;15.30;46.40
31379;DHT22;61664;48.112;11.662;2023-05-28T01:42:16;15.30;46.50
31379;DHT22;61664;48.112;11.662;2023-05-28T01:44:44;15.30;46.40
31379;DHT22;61664;48.112;11.662;2023-05-28T01:47:13;15.20;46.40
31379;DHT22;61664;48.112;11.662;2023-05-28T01:49:41;15.20;46.60
31379;DHT22;61664;48.112;11.662;2023-05-28T01:52:08;15.20;46.60
31379;DHT22;61664;48.112;11.662;2023-05-28T01:54:36;15.10;46.70
31379;DHT22;61664;48.112;11.662;2023-05-28T01:57:03;15.10;46.70
31379;DHT22;61664;48.112;11.662;2023-05-28T01:59:31;15.10;46.90
31379;DHT22;61664;48.112;11.662;2023-05-28T02:01:58;15.00;46.80
31379;DHT22;61664;48.112;11.662;2023-05-28T02:04:25;15.00;46.90
31379;DHT22;61664;48.112;11.662;2023-05-28T02:06:52;15.00;46.90
31379;DHT22;61664;48.112;11.662;2023-05-28T02:09:19;14.90;46.90
31379;DHT22;61664;48.112;11.662;2023-05-28T02:11:46;14.90;47.10
31379;DHT22;61664;48.112;11.662;2023-05-28T02:14:13;14.80;47.20
31379;DHT22;61664;48.112;11.662;2023-05-28T02:16:46;14.80;47.30
31379;DHT22;61664;48.112;11.662;2023-05-28T02:19:19;14.80;47.90
31379;DHT22;61664;48.112;11.662;2023-05-28T02:21:46;14.70;47.30
31379;DHT22;61664;48.112;11.662;2023-05-28T02:24:13;14.70;47.40
31379;DHT22;61664;48.112;11.662;2023-05-28T02:26:40;14.70;47.50
31379;DHT22;61664;48.112;11.662;2023-05-28T02:29:07;14.60;47.50
31379;DHT22;61664;48.112;11.662;2023-05-28T02:31:34;14.60;47.60
31379;DHT22;61664;48.112;11.662;2023-05-28T02:34:01;14.60;47.60
31379;DHT22;61664;48.112;11.662;2023-05-28T02:36:28;14.50;47.60
31379;DHT22;61664;48.112;11.662;2023-05-28T02:38:56;14.50;47.70
31379;DHT22;61664;48.112;11.662;2023-05-28T02:41:23;14.50;47.90
31379;DHT22;61664;48.112;11.662;2023-05-28T02:43:50;14.50;48.00
31379;DHT22;61664;48.112;11.662;2023-05-28T02:46:17;14.40;48.10
31379;DHT22;61664;48.112;11.662;2023-05-28T02:48:44;14.40;48.10
31379;DHT22;61664;48.112;11.662;2023-05-28T02:51:11;14.40;48.10
31379;DHT22;61664;48.112;11.662;2023-05-28T02:53:38;14.40;48.10
31379;DHT22;61664;48.112;11.662;2023-05-28T02:56:05;14.40;48.20
31379;DHT22;61664;48.112;11.662;2023-05-28T02:58:32;14.40;48.30
31379;DHT22;61664;48.112;11.662;2023-05-28T03:00:59;14.30;48.30
31379;DHT22;61664;48.112;11.662;2023-05-28T03:03:28;14.30;48.30
31379;DHT22;61664;48.112;11.662;2023-05-28T03:05:55;14.30;48.30
31379;DHT22;61664;48.112;11.662;2023-05-28T03:08:22;14.30;48.30
31379;DHT22;61664;48.112;11.662;2023-05-28T03:10:49;14.30;48.30
31379;DHT22;61664;48.112;11.662;2023-05-28T03:13:16;14.20;48.40
31379;DHT22;61664;48.112;11.662;2023-05-28T03:15:43;14.10;48.50
31379;DHT22;61664;48.112;11.662;2023-05-28T03:18:10;14.10;48.50
31379;DHT22;61664;48.112;11.662;2023-05-28T03:20:37;14.10;48.60
31379;DHT22;61664;48.112;11.662;2023-05-28T03:23:05;14.10;48.70
31379;DHT22;61664;48.112;11.662;2023-05-28T03:25:32;14.00;48.60
31379;DHT22;61664;48.112;11.662;2023-05-28T03:27:59;14.00;48.70
31379;DHT22;61664;48.112;11.662;2023-05-28T03:30:26;14.00;48.80
31379;DHT22;61664;48.112;11.662;2023-05-28T03:32:53;13.90;48.90
31379;DHT22;61664;48.112;11.662;2023-05-28T03:35:20;13.90;49.00
31379;DHT22;61664;48.112;11.662;2023-05-28T03:37:47;13.90;49.00
31379;DHT22;61664;48.112;11.662;2023-05-28T03:40:14;13.90;49.10
31379;DHT22;61664;48.112;11.662;2023-05-28T03:42:41;13.90;49.20
31379;DHT22;61664;48.112;11.662;2023-05-28T03:45:08;13.80;49.20
31379;DHT22;61664;48.112;11.662;2023-05-28T03:47:35;13.80;49.20
31379;DHT22;61664;48.112;11.662;2023-05-28T03:50:03;13.80;49.30
31379;DHT22;61664;48.112;11.662;2023-05-28T03:52:33;13.80;49.40
31379;DHT22;61664;48.112;11.662;2023-05-28T03:55:00;13.90;49.50
31379;DHT22;61664;48.112;11.662;2023-05-28T03:57:27;13.90;49.60
31379;DHT22;61664;48.112;11.662;2023-05-28T03:59:54;13.80;49.50
31379;DHT22;61664;48.112;11.662;2023-05-28T04:02:23;13.90;49.70
31379;DHT22;61664;48.112;11.662;2023-05-28T04:04:51;13.90;49.50
31379;DHT22;61664;48.112;11.662;2023-05-28T04:07:18;14.00;49.60
31379;DHT22;61664;48.112;11.662;2023-05-28T04:09:45;14.00;49.70
31379;DHT22;61664;48.112;11.662;2023-05-28T04:12:12;14.10;49.80
31379;DHT22;61664;48.112;11.662;2023-05-28T04:14:39;14.00;49.80
31379;DHT22;61664;48.112;11.662;2023-05-28T04:17:08;14.10;50.00
31379;DHT22;61664;48.112;11.662;2023-05-28T04:19:39;14.10;50.60
31379;DHT22;61664;48.112;11.662;2023-05-28T04:22:06;14.10;49.90
31379;DHT22;61664;48.112;11.662;2023-05-28T04:24:34;14.20;50.00
31379;DHT22;61664;48.112;11.662;2023-05-28T04:27:01;14.20;50.10
31379;DHT22;61664;48.112;11.662;2023-05-28T04:29:29;14.20;50.00
31379;DHT22;61664;48.112;11.662;2023-05-28T04:31:57;14.30;50.10
31379;DHT22;61664;48.112;11.662;2023-05-28T04:34:25;14.40;50.20
31379;DHT22;61664;48.112;11.662;2023-05-28T04:36:52;14.40;50.30
31379;DHT22;61664;48.112;11.662;2023-05-28T04:39:19;14.40;50.20
31379;DHT22;61664;48.112;11.662;2023-05-28T04:41:49;14.60;50.40
31379;DHT22;61664;48.112;11.662;2023-05-28T04:44:16;14.60;50.50
31379;DHT22;61664;48.112;11.662;2023-05-28T04:46:43;14.70;50.30
31379;DHT22;61664;48.112;11.662;2023-05-28T04:49:12;14.80;50.40
31379;DHT22;61664;48.112;11.662;2023-05-28T04:51:39;14.90;50.30
31379;DHT22;61664;48.112;11.662;2023-05-28T04:54:06;14.90;50.20
31379;DHT22;61664;48.112;11.662;2023-05-28T04:56:35;15.00;50.20
31379;DHT22;61664;48.112;11.662;2023-05-28T04:59:02;15.10;50.30
31379;DHT22;61664;48.112;11.662;2023-05-28T05:01:31;15.20;50.20
31379;DHT22;61664;48.112;11.662;2023-05-28T05:04:02;15.30;50.20
31379;DHT22;61664;48.112;11.662;2023-05-28T05:06:29;15.40;49.90
31379;DHT22;61664;48.112;11.662;2023-05-28T05:08:57;15.50;49.70
31379;DHT22;61664;48.112;11.662;2023-05-28T05:11:23;15.60;49.90
31379;DHT22;61664;48.112;11.662;2023-05-28T05:13:50;15.70;49.90
31379;DHT22;61664;48.112;11.662;2023-05-28T05:16:18;15.70;49.70
31379;DHT22;61664;48.112;11.662;2023-05-28T05:18:46;15.80;49.60
31379;DHT22;61664;48.112;11.662;2023-05-28T05:21:14;15.90;49.30
31379;DHT22;61664;48.112;11.662;2023-05-28T05:23:41;16.00;49.20
31379;DHT22;61664;48.112;11.662;2023-05-28T05:26:08;16.10;49.30
31379;DHT22;61664;48.112;11.662;2023-05-28T05:28:44;16.20;49.20
31379;DHT22;61664;48.112;11.662;2023-05-28T05:31:11;16.30;48.90
31379;DHT22;61664;48.112;11.662;2023-05-28T05:33:39;16.40;48.80
31379;DHT22;61664;48.112;11.662;2023-05-28T05:36:08;16.50;48.60
31379;DHT22;61664;48.112;11.662;2023-05-28T05:38:37;16.50;48.40
31379;DHT22;61664;48.112;11.662;2023-05-28T05:41:04;16.50;48.40
31379;DHT22;61664;48.112;11.662;2023-05-28T05:43:31;16.60;48.30
31379;DHT22;61664;48.112;11.662;2023-05-28T05:45:58;16.70;48.30
31379;DHT22;61664;48.112;11.662;2023-05-28T05:48:26;16.70;48.20
31379;DHT22;61664;48.112;11.662;2023-05-28T05:50:54;16.70;48.20
31379;DHT22;61664;48.112;11.662;2023-05-28T05:53:22;16.80;48.10
31379;DHT22;61664;48.112;11.662;2023-05-28T05:55:50;16.90;48.20
31379;DHT22;61664;48.112;11.662;2023-05-28T05:58:18;16.90;48.00
31379;DHT22;61664;48.112;11.662;2023-05-28T06:00:45;17.00;48.50
31379;DHT22;61664;48.112;11.662;2023-05-28T06:03:14;17.10;47.90
31379;DHT22;61664;48.112;11.662;2023-05-28T06:05:41;17.10;47.80
31379;DHT22;61664;48.112;11.662;2023-05-28T06:08:08;17.20;47.90
31379;DHT22;61664;48.112;11.662;2023-05-28T06:10:35;17.20;47.80
31379;DHT22;61664;48.112;11.662;2023-05-28T06:13:02;17.30;47.60
31379;DHT22;61664;48.112;11.662;2023-05-28T06:15:29;17.40;47.60
31379;DHT22;61664;48.112;11.662;2023-05-28T06:17:57;17.40;47.40
31379;DHT22;61664;48.112;11.662;2023-05-28T06:20:25;17.60;47.60
31379;DHT22;61664;48.112;11.662;2023-05-28T06:22:53;17.60;47.50
31379;DHT22;61664;48.112;11.662;2023-05-28T06:25:19;17.70;47.60
31379;DHT22;61664;48.112;11.662;2023-05-28T06:27:48;17.80;47.30
31379;DHT22;61664;48.112;11.662;2023-05-28T06:30:16;17.90;47.20
31379;DHT22;61664;48.112;11.662;2023-05-28T06:32:44;17.90;47.10
31379;DHT22;61664;48.112;11.662;2023-05-28T06:35:11;18.00;47.00
31379;DHT22;61664;48.112;11.662;2023-05-28T06:37:38;18.10;47.30
31379;DHT22;61664;48.112;11.662;2023-05-28T06:40:07;18.20;47.40
31379;DHT22;61664;48.112;11.662;2023-05-28T06:42:37;18.30;47.30
31379;DHT22;61664;48.112;11.662;2023-05-28T06:45:05;18.50;47.20
31379;DHT22;61664;48.112;11.662;2023-05-28T06:47:34;18.60;46.80
31379;DHT22;61664;48.112;11.662;2023-05-28T06:50:01;18.60;47.30
31379;DHT22;61664;48.112;11.662;2023-05-28T06:52:28;18.70;47.00
31379;DHT22;61664;48.112;11.662;2023-05-28T06:54:55;18.90;47.00
31379;DHT22;61664;48.112;11.662;2023-05-28T06:57:22;19.00;46.90
31379;DHT22;61664;48.112;11.662;2023-05-28T06:59:49;19.10;46.70
31379;DHT22;61664;48.112;11.662;2023-05-28T07:02:16;19.20;46.30
31379;DHT22;61664;48.112;11.662;2023-05-28T07:04:43;19.40;46.30
31379;DHT22;61664;48.112;11.662;2023-05-28T07:07:11;19.40;46.10
31379;DHT22;61664;48.112;11.662;2023-05-28T07:09:38;19.50;46.10
31379;DHT22;61664;48.112;11.662;2023-05-28T07:12:05;19.60;46.30
31379;DHT22;61664;48.112;11.662;2023-05-28T07:14:32;19.70;45.90
31379;DHT22;61664;48.112;11.662;2023-05-28T07:16:59;19.90;46.30
31379;DHT22;61664;48.112;11.662;2023-05-28T07:19:27;20.00;45.70
31379;DHT22;61664;48.112;11.662;2023-05-28T07:21:54;20.10;45.40
31379;DHT22;61664;48.112;11.662;2023-05-28T07:24:21;20.20;45.50
31379;DHT22;61664;48.112;11.662;2023-05-28T07:26:47;20.30;45.00
31379;DHT22;61664;48.112;11.662;2023-05-28T07:29:14;20.40;44.90
31379;DHT22;61664;48.112;11.662;2023-05-28T07:31:44;20.50;44.60
31379;DHT22;61664;48.112;11.662;2023-05-28T07:34:12;20.60;44.40
31379;DHT22;61664;48.112;11.662;2023-05-28T07:36:38;20.70;44.00
31379;DHT22;61664;48.112;11.662;2023-05-28T07:39:05;20.90;43.90
31379;DHT22;61664;48.112;11.662;2023-05-28T07:41:32;21.00;44.00
31379;DHT22;61664;48.112;11.662;2023-05-28T07:44:01;21.10;44.00
31379;DHT22;61664;48.112;11.662;2023-05-28T07:46:33;21.20;43.70
31379;DHT22;61664;48.112;11.662;2023-05-28T07:49:01;21.40;43.60
31379;DHT22;61664;48.112;11.662;2023-05-28T07:51:29;21.50;43.50
31379;DHT22;61664;48.112;11.662;2023-05-28T07:53:56;21.60;43.40
31379;DHT22;61664;48.112;11.662;2023-05-28T07:56:23;21.80;43.30
31379;DHT22;61664;48.112;11.662;2023-05-28T07:58:50;21.90;43.30
31379;DHT22;61664;48.112;11.662;2023-05-28T08:01:17;22.10;43.00
31379;DHT22;61664;48.112;11.662;2023-05-28T08:03:45;22.20;42.60
31379;DHT22;61664;48.112;11.662;2023-05-28T08:06:17;22.40;42.40
31379;DHT22;61664;48.112;11.662;2023-05-28T08:08:44;22.60;42.10
31379;DHT22;61664;48.112;11.662;2023-05-28T08:11:11;22.70;41.70
31379;DHT22;61664;48.112;11.662;2023-05-28T08:13:41;22.80;41.40
31379;DHT22;61664;48.112;11.662;2023-05-28T08:16:11;22.90;41.40
31379;DHT22;61664;48.112;11.662;2023-05-28T08:18:39;23.00;41.20
31379;DHT22;61664;48.112;11.662;2023-05-28T08:21:06;23.00;40.80
31379;DHT22;61664;48.112;11.662;2023-05-28T08:23:34;23.20;40.90
31379;DHT22;61664;48.112;11.662;2023-05-28T08:26:02;23.30;40.70
31379;DHT22;61664;48.112;11.662;2023-05-28T08:28:30;23.40;40.70
31379;DHT22;61664;48.112;11.662;2023-05-28T08:30:59;23.50;40.60
31379;DHT22;61664;48.112;11.662;2023-05-28T08:33:26;23.70;40.20
31379;DHT22;61664;48.112;11.662;2023-05-28T08:35:53;23.80;39.60
31379;DHT22;61664;48.112;11.662;2023-05-28T08:38:20;23.90;39.60
31379;DHT22;61664;48.112;11.662;2023-05-28T08:40:54;24.00;39.50
31379;DHT22;61664;48.112;11.662;2023-05-28T08:43:22;24.20;39.10
31379;DHT22;61664;48.112;11.662;2023-05-28T08:45:52;24.40;39.80
31379;DHT22;61664;48.112;11.662;2023-05-28T08:48:21;24.70;39.20
31379;DHT22;61664;48.112;11.662;2023-05-28T08:50:50;25.20;39.30
31379;DHT22;61664;48.112;11.662;2023-05-28T08:53:21;25.90;38.90
31379;DHT22;61664;48.112;11.662;2023-05-28T08:55:51;26.70;38.20
31379;DHT22;61664;48.112;11.662;2023-05-28T08:58:19;27.60;37.30
31379;DHT22;61664;48.112;11.662;2023-05-28T09:00:47;28.40;36.50
31379;DHT22;61664;48.112;11.662;2023-05-28T09:03:15;29.20;35.50
31379;DHT22;61664;48.112;11.662;2023-05-28T09:05:42;29.90;35.10
31379;DHT22;61664;48.112;11.662;2023-05-28T09:08:10;30.60;33.60
31379;DHT22;61664;48.112;11.662;2023-05-28T09:10:40;31.10;32.70
31379;DHT22;61664;48.112;11.662;2023-05-28T09:13:07;31.60;32.80
31379;DHT22;61664;48.112;11.662;2023-05-28T09:15:34;32.10;32.60
31379;DHT22;61664;48.112;11.662;2023-05-28T09:18:04;32.50;31.90
31379;DHT22;61664;48.112;11.662;2023-05-28T09:20:31;33.00;31.30
31379;DHT22;61664;48.112;11.662;2023-05-28T09:23:03;33.50;31.00
31379;DHT22;61664;48.112;11.662;2023-05-28T09:25:35;33.80;29.50
31379;DHT22;61664;48.112;11.662;2023-05-28T09:28:03;34.20;29.80
31379;DHT22;61664;48.112;11.662;2023-05-28T09:30:36;34.50;29.70
31379;DHT22;61664;48.112;11.662;2023-05-28T09:33:05;34.80;28.50
31379;DHT22;61664;48.112;11.662;2023-05-28T09:35:34;35.00;29.20
31379;DHT22;61664;48.112;11.662;2023-05-28T09:38:04;35.30;29.00
31379;DHT22;61664;48.112;11.662;2023-05-28T09:40:39;35.50;28.60
31379;DHT22;61664;48.112;11.662;2023-05-28T09:43:07;35.70;27.60
31379;DHT22;61664;48.112;11.662;2023-05-28T09:45:35;35.90;28.00
31379;DHT22;61664;48.112;11.662;2023-05-28T09:48:02;36.00;28.00
31379;DHT22;61664;48.112;11.662;2023-05-28T09:50:30;36.00;27.50
31379;DHT22;61664;48.112;11.662;2023-05-28T09:52:58;36.10;27.50
31379;DHT22;61664;48.112;11.662;2023-05-28T09:55:27;36.10;27.40
31379;DHT22;61664;48.112;11.662;2023-05-28T09:58:04;36.20;27.50
31379;DHT22;61664;48.112;11.662;2023-05-28T10:00:52;36.30;27.90
31379;DHT22;61664;48.112;11.662;2023-05-28T10:03:24;36.40;27.80
31379;DHT22;61664;48.112;11.662;2023-05-28T10:05:59;36.60;26.90
31379;DHT22;61664;48.112;11.662;2023-05-28T10:08:28;36.60;26.90
31379;DHT22;61664;48.112;11.662;2023-05-28T10:10:58;36.70;26.90
31379;DHT22;61664;48.112;11.662;2023-05-28T10:13:25;36.80;26.90
31379;DHT22;61664;48.112;11.662;2023-05-28T10:15:53;36.90;26.80
31379;DHT22;61664;48.112;11.662;2023-05-28T10:18:22;37.10;26.70
31379;DHT22;61664;48.112;11.662;2023-05-28T10:20:51;37.20;26.40
31379;DHT22;61664;48.112;11.662;2023-05-28T10:23:19;37.40;26.30
31379;DHT22;61664;48.112;11.662;2023-05-28T10:25:48;37.50;25.90
31379;DHT22;61664;48.112;11.662;2023-05-28T10:28:16;37.70;26.10
31379;DHT22;61664;48.112;11.662;2023-05-28T10:30:45;37.80;26.00
31379;DHT22;61664;48.112;11.662;2023-05-28T10:33:16;37.90;25.80
31379;DHT22;61664;48.112;11.662;2023-05-28T10:35:57;37.90;25.00
31379;DHT22;61664;48.112;11.662;2023-05-28T10:38:28;38.00;25.20
31379;DHT22;61664;48.112;11.662;2023-05-28T10:41:00;38.10;25.90
31379;DHT22;61664;48.112;11.662;2023-05-28T10:49:06;38.60;25.50
31379;DHT22;61664;48.112;11.662;2023-05-28T10:52:00;38.70;25.10
31379;DHT22;61664;48.112;11.662;2023-05-28T10:57:20;38.60;24.10
31379;DHT22;61664;48.112;11.662;2023-05-28T11:04:56;38.60;24.40
31379;DHT22;61664;48.112;11.662;2023-05-28T11:07:33;38.60;25.00
31379;DHT22;61664;48.112;11.662;2023-05-28T11:10:01;38.60;24.00
31379;DHT22;61664;48.112;11.662;2023-05-28T11:12:35;38.60;24.30
31379;DHT22;61664;48.112;11.662;2023-05-28T11:15:08;38.60;23.70
31379;DHT22;61664;48.112;11.662;2023-05-28T11:17:38;38.50;24.00
31379;DHT22;61664;48.112;11.662;2023-05-28T11:22:44;38.30;23.40
31379;DHT22;61664;48.112;11.662;2023-05-28T11:25:11;38.10;23.70
31379;DHT22;61664;48.112;11.662;2023-05-28T11:27:39;37.80;23.40
31379;DHT22;61664;48.112;11.662;2023-05-28T11:30:09;37.40;23.40
31379;DHT22;61664;48.112;11.662;2023-05-28T11:32:38;36.90;23.20
31379;DHT22;61664;48.112;11.662;2023-05-28T11:35:09;36.40;23.30
31379;DHT22;61664;48.112;11.662;2023-05-28T11:37:42;35.80;23.10
31379;DHT22;61664;48.112;11.662;2023-05-28T11:40:12;35.10;23.40
31379;DHT22;61664;48.112;11.662;2023-05-28T11:42:41;34.50;23.70
31379;DHT22;61664;48.112;11.662;2023-05-28T11:45:11;33.90;23.90
31379;DHT22;61664;48.112;11.662;2023-05-28T11:47:38;33.40;24.00
31379;DHT22;61664;48.112;11.662;2023-05-28T11:50:11;32.90;24.20
31379;DHT22;61664;48.112;11.662;2023-05-28T11:52:40;32.40;24.30
31379;DHT22;61664;48.112;11.662;2023-05-28T11:55:08;32.00;24.50
31379;DHT22;61664;48.112;11.662;2023-05-28T11:57:36;31.60;24.80
31379;DHT22;61664;48.112;11.662;2023-05-28T12:00:12;31.30;24.80
31379;DHT22;61664;48.112;11.662;2023-05-28T12:02:51;31.00;24.90
31379;DHT22;61664;48.112;11.662;2023-05-28T12:05:20;30.70;25.00
31379;DHT22;61664;48.112;11.662;2023-05-28T12:07:49;30.50;25.10
31379;DHT22;61664;48.112;11.662;2023-05-28T12:10:26;30.30;25.40
31379;DHT22;61664;48.112;11.662;2023-05-28T12:12:55;30.20;25.30
31379;DHT22;61664;48.112;11.662;2023-05-28T12:15:27;30.00;25.20
31379;DHT22;61664;48.112;11.662;2023-05-28T12:17:59;29.90;25.40
31379;DHT22;61664;48.112;11.662;2023-05-28T12:20:40;29.70;25.70
31379;DHT22;61664;48.112;11.662;2023-05-28T12:23:10;29.70;25.60
31379;DHT22;61664;48.112;11.662;2023-05-28T12:25:51;29.70;25.90
31379;DHT22;61664;48.112;11.662;2023-05-28T12:28:20;29.80;26.00
31379;DHT22;61664;48.112;11.662;2023-05-28T12:30:50;29.80;25.90
31379;DHT22;61664;48.112;11.662;2023-05-28T12:33:21;29.80;25.80
31379;DHT22;61664;48.112;11.662;2023-05-28T12:35:48;29.90;25.70
31379;DHT22;61664;48.112;11.662;2023-05-28T12:38:18;29.90;25.90
31379;DHT22;61664;48.112;11.662;2023-05-28T12:40:46;29.90;26.00
31379;DHT22;61664;48.112;11.662;2023-05-28T12:43:14;29.90;25.80
31379;DHT22;61664;48.112;11.662;2023-05-28T12:45:41;29.80;25.80
31379;DHT22;61664;48.112;11.662;2023-05-28T12:48:08;29.70;25.90
31379;DHT22;61664;48.112;11.662;2023-05-28T12:50:35;29.60;25.90
31379;DHT22;61664;48.112;11.662;2023-05-28T12:53:02;29.60;26.00
31379;DHT22;61664;48.112;11.662;2023-05-28T12:55:32;29.50;25.70
31379;DHT22;61664;48.112;11.662;2023-05-28T12:58:00;29.50;25.80
31379;DHT22;61664;48.112;11.662;2023-05-28T13:00:27;29.40;25.90
31379;DHT22;61664;48.112;11.662;2023-05-28T13:02:54;29.30;25.70
31379;DHT22;61664;48.112;11.662;2023-05-28T13:05:21;29.30;25.90
31379;DHT22;61664;48.112;11.662;2023-05-28T13:07:49;29.20;25.90
31379;DHT22;61664;48.112;11.662;2023-05-28T13:10:16;29.20;25.80
31379;DHT22;61664;48.112;11.662;2023-05-28T13:12:43;29.20;25.90
31379;DHT22;61664;48.112;11.662;2023-05-28T13:15:10;29.20;25.80
31379;DHT22;61664;48.112;11.662;2023-05-28T13:17:37;29.20;25.90
31379;DHT22;61664;48.112;11.662;2023-05-28T13:20:05;29.20;25.90
31379;DHT22;61664;48.112;11.662;2023-05-28T13:22:37;29.20;26.00
31379;DHT22;61664;48.112;11.662;2023-05-28T13:25:04;29.30;26.10
31379;DHT22;61664;48.112;11.662;2023-05-28T13:27:33;29.40;26.10
31379;DHT22;61664;48.112;11.662;2023-05-28T13:30:00;29.50;25.80
31379;DHT22;61664;48.112;11.662;2023-05-28T13:32:29;29.70;25.80
31379;DHT22;61664;48.112;11.662;2023-05-28T13:34:56;29.70;25.70
31379;DHT22;61664;48.112;11.662;2023-05-28T13:37:22;29.80;26.00
31379;DHT22;61664;48.112;11.662;2023-05-28T13:39:49;30.00;25.90
31379;DHT22;61664;48.112;11.662;2023-05-28T13:42:16;30.20;25.80
31379;DHT22;61664;48.112;11.662;2023-05-28T13:44:47;30.40;25.80
31379;DHT22;61664;48.112;11.662;2023-05-28T13:47:15;30.80;26.00
31379;DHT22;61664;48.112;11.662;2023-05-28T13:49:44;31.20;26.00
31379;DHT22;61664;48.112;11.662;2023-05-28T13:52:11;31.70;26.10
31379;DHT22;61664;48.112;11.662;2023-05-28T13:54:38;32.20;25.80
31379;DHT22;61664;48.112;11.662;2023-05-28T13:57:07;32.90;26.10
31379;DHT22;61664;48.112;11.662;2023-05-28T13:59:34;33.50;25.60
31379;DHT22;61664;48.112;11.662;2023-05-28T14:02:03;34.00;25.30
31379;DHT22;61664;48.112;11.662;2023-05-28T14:04:30;34.60;25.30
31379;DHT22;61664;48.112;11.662;2023-05-28T14:06:57;35.10;24.90
31379;DHT22;61664;48.112;11.662;2023-05-28T14:09:24;35.70;24.70
31379;DHT22;61664;48.112;11.662;2023-05-28T14:11:51;36.20;24.80
31379;DHT22;61664;48.112;11.662;2023-05-28T14:14:22;36.60;24.30
31379;DHT22;61664;48.112;11.662;2023-05-28T14:16:49;37.10;24.30
31379;DHT22;61664;48.112;11.662;2023-05-28T14:19:16;37.50;24.00
31379;DHT22;61664;48.112;11.662;2023-05-28T14:21:44;37.80;23.90
31379;DHT22;61664;48.112;11.662;2023-05-28T14:24:12;38.20;23.60
31379;DHT22;61664;48.112;11.662;2023-05-28T14:26:39;38.50;23.20
31379;DHT22;61664;48.112;11.662;2023-05-28T14:29:06;38.70;23.30
31379;DHT22;61664;48.112;11.662;2023-05-28T14:31:33;38.80;23.20
31379;DHT22;61664;48.112;11.662;2023-05-28T14:34:00;39.00;22.90
31379;DHT22;61664;48.112;11.662;2023-05-28T14:36:27;39.10;22.70
31379;DHT22;61664;48.112;11.662;2023-05-28T14:38:54;39.30;22.70
31379;DHT22;61664;48.112;11.662;2023-05-28T14:41:21;39.50;22.50
31379;DHT22;61664;48.112;11.662;2023-05-28T14:43:48;39.50;22.30
31379;DHT22;61664;48.112;11.662;2023-05-28T14:46:15;39.70;22.50
31379;DHT22;61664;48.112;11.662;2023-05-28T14:48:42;39.80;22.50
31379;DHT22;61664;48.112;11.662;2023-05-28T14:51:10;39.90;22.20
31379;DHT22;61664;48.112;11.662;2023-05-28T14:53:38;39.90;21.90
31379;DHT22;61664;48.112;11.662;2023-05-28T14:56:05;39.90;22.00
31379;DHT22;61664;48.112;11.662;2023-05-28T14:58:32;40.00;22.00
31379;DHT22;61664;48.112;11.662;2023-05-28T15:01:01;39.90;21.90
31379;DHT22;61664;48.112;11.662;2023-05-28T15:03:30;39.90;21.90
31379;DHT22;61664;48.112;11.662;2023-05-28T15:05:58;39.80;21.70
31379;DHT22;61664;48.112;11.662;2023-05-28T15:08:25;39.90;21.50
31379;DHT22;61664;48.112;11.662;2023-05-28T15:10:52;39.90;21.60
31379;DHT22;61664;48.112;11.662;2023-05-28T15:13:19;39.90;21.60
31379;DHT22;61664;48.112;11.662;2023-05-28T15:15:46;39.80;21.60
31379;DHT22;61664;48.112;11.662;2023-05-28T15:18:13;39.80;21.50
31379;DHT22;61664;48.112;11.662;2023-05-28T15:20:41;39.90;21.60
31379;DHT22;61664;48.112;11.662;2023-05-28T15:23:08;40.00;21.70
31379;DHT22;61664;48.112;11.662;2023-05-28T15:25:35;40.00;21.60
31379;DHT22;61664;48.112;11.662;2023-05-28T15:28:03;40.10;21.70
31379;DHT22;61664;48.112;11.662;2023-05-28T15:30:31;40.20;21.80
31379;DHT22;61664;48.112;11.662;2023-05-28T15:32:59;40.40;21.70
31379;DHT22;61664;48.112;11.662;2023-05-28T15:35:27;40.50;21.70
31379;DHT22;61664;48.112;11.662;2023-05-28T15:37:55;40.50;21.50